createdAt,value
2023-03-10T00:03:21.903Z,16.75
2023-03-10T00:08:26.097Z,20.25
2023-03-10T00:13:27.907Z,14.93
2023-03-10T00:18:28.563Z,15.98
2023-03-10T00:23:30.587Z,13.00
2023-03-10T00:28:31.214Z,16.00
2023-03-10T00:33:33.153Z,19.08
2023-03-10T00:38:35.853Z,18.52
2023-03-10T00:43:36.891Z,22.65
2023-03-10T00:48:38.050Z,17.15
2023-03-10T00:53:41.425Z,17.65
2023-03-10T00:58:42.286Z,10.57
2023-03-10T01:03:43.125Z,18.88
2023-03-10T01:08:45.112Z,12.43
2023-03-10T01:13:47.874Z,15.77
2023-03-10T01:18:48.729Z,18.13
2023-03-10T01:23:50.849Z,13.52
2023-03-10T01:28:51.516Z,12.38
2023-03-10T01:33:52.445Z,10.40
2023-03-10T01:38:56.200Z,10.45
2023-03-10T01:43:59.122Z,18.42
2023-03-10T01:49:03.556Z,9.65
2023-03-10T01:54:10.404Z,9.90
2023-03-10T01:59:12.098Z,12.57
2023-03-10T02:04:17.437Z,20.58
2023-03-10T02:09:21.103Z,7.20
2023-03-10T02:14:21.845Z,13.07
2023-03-10T02:19:38.711Z,11.07
2023-03-10T02:24:48.024Z,14.02
2023-03-10T02:29:59.848Z,15.95
2023-03-10T02:35:05.595Z,24.67
2023-03-10T02:40:29.756Z,9.40
2023-03-10T02:45:34.096Z,10.60
2023-03-10T02:50:38.954Z,11.77
2023-03-10T02:55:39.675Z,13.02
2023-03-10T03:00:44.898Z,7.18
2023-03-10T03:05:48.245Z,3.20
2023-03-10T03:10:49.464Z,12.48
2023-03-10T03:15:52.121Z,11.93
2023-03-10T03:20:53.189Z,6.90
2023-03-10T03:25:53.922Z,2.88
2023-03-10T03:30:57.668Z,7.90
2023-03-10T03:35:58.533Z,6.95
2023-03-10T03:40:59.671Z,3.70
2023-03-10T03:46:02.447Z,9.30
2023-03-10T03:51:03.614Z,6.47
2023-03-10T03:56:10.973Z,5.85
2023-03-10T04:01:15.616Z,5.63
2023-03-10T04:06:21.122Z,7.10
2023-03-10T04:11:22.073Z,9.40
2023-03-10T04:16:27.060Z,16.08
2023-03-10T04:21:27.862Z,15.48
2023-03-10T04:26:31.050Z,16.52
2023-03-10T04:31:33.388Z,14.45
2023-03-10T04:36:35.820Z,14.05
2023-03-10T04:41:37.973Z,10.05
2023-03-10T04:46:41.006Z,14.73
2023-03-10T04:51:42.643Z,10.65
2023-03-10T04:56:43.603Z,7.22
2023-03-10T05:01:46.217Z,5.15
2023-03-10T05:06:51.460Z,4.85
2023-03-10T05:11:57.213Z,4.18
2023-03-10T05:17:00.541Z,4.63
2023-03-10T05:22:02.203Z,4.13
2023-03-10T05:27:05.539Z,4.93
2023-03-10T05:32:08.924Z,4.20
2023-03-10T05:37:13.284Z,2.53
2023-03-10T05:42:14.140Z,4.57
2023-03-10T05:47:19.205Z,4.18
2023-03-10T05:52:21.052Z,4.10
2023-03-10T05:57:22.771Z,2.83
2023-03-10T06:02:24.749Z,1.13
2023-03-10T06:07:25.414Z,3.20
2023-03-10T06:12:26.055Z,2.25
2023-03-10T06:17:28.195Z,2.45
2023-03-10T06:22:31.156Z,5.80
2023-03-10T06:27:32.776Z,1.95
2023-03-10T06:32:36.359Z,2.10
2023-03-10T06:37:37.068Z,5.25
2023-03-10T06:42:37.746Z,2.25
2023-03-10T06:47:40.028Z,3.08
2023-03-10T06:52:42.574Z,2.65
2023-03-10T06:57:43.407Z,2.80
2023-03-10T07:02:45.480Z,3.28
2023-03-10T07:07:46.274Z,3.03
2023-03-10T07:12:49.778Z,1.13
2023-03-10T07:17:51.761Z,3.45
2023-03-10T07:22:52.991Z,1.65
2023-03-10T07:27:53.642Z,3.50
2023-03-10T07:32:55.722Z,3.72
2023-03-10T07:37:56.673Z,1.17
2023-03-10T07:42:57.349Z,0.93
2023-03-10T07:48:01.863Z,3.65
2023-03-10T07:53:02.680Z,3.10
2023-03-10T07:58:03.428Z,1.25
2023-03-10T08:03:05.422Z,1.75
2023-03-10T08:08:06.555Z,1.27
2023-03-10T08:13:07.265Z,0.70
2023-03-10T08:18:09.708Z,0.98
2023-03-10T08:23:10.413Z,1.92
2023-03-10T08:28:11.107Z,0.88
2023-03-10T08:33:13.274Z,1.20
2023-03-10T08:38:13.988Z,3.72
2023-03-10T08:43:14.931Z,0.93
2023-03-10T08:48:16.979Z,0.90
2023-03-10T08:53:17.702Z,0.40
2023-03-10T08:58:18.582Z,1.70
2023-03-10T09:03:21.396Z,1.77
2023-03-10T09:08:22.455Z,1.42
2023-03-10T09:13:23.296Z,2.65
2023-03-10T09:18:25.268Z,3.60
2023-03-10T09:23:25.938Z,2.00
2023-03-10T09:28:26.577Z,0.98
2023-03-10T09:33:28.634Z,1.33
2023-03-10T09:38:29.831Z,1.13
2023-03-10T09:43:37.764Z,3.40
2023-03-10T09:48:51.340Z,2.40
2023-03-10T09:54:03.196Z,2.60
2023-03-10T09:59:11.282Z,2.80
2023-03-10T10:04:16.833Z,7.18
2023-03-10T10:09:27.312Z,1.77
2023-03-10T10:14:31.599Z,2.80
2023-03-10T10:19:36.772Z,1.40
2023-03-10T10:24:38.627Z,2.67
2023-03-10T10:29:42.361Z,2.08
2023-03-10T10:34:46.551Z,2.38
2023-03-10T10:39:50.809Z,3.30
2023-03-10T10:44:54.346Z,4.80
2023-03-10T10:50:09.353Z,5.72
2023-03-10T10:55:29.322Z,1.08
2023-03-10T11:00:32.469Z,4.78
2023-03-10T11:05:37.615Z,2.63
2023-03-10T11:10:39.184Z,2.63
2023-03-10T11:15:50.422Z,3.20
2023-03-10T11:20:59.588Z,4.32
2023-03-10T11:26:05.316Z,3.10
2023-03-10T11:31:18.489Z,2.65
2023-03-10T11:36:31.721Z,1.88
2023-03-10T11:41:37.340Z,2.15
2023-03-10T11:46:44.461Z,3.40
2023-03-10T11:51:50.044Z,4.50
2023-03-10T11:56:51.951Z,2.92
2023-03-10T12:01:56.547Z,1.23
2023-03-10T12:07:05.601Z,4.75
2023-03-10T12:12:08.459Z,2.50
2023-03-10T12:17:12.980Z,6.22
2023-03-10T12:22:39.083Z,2.53
2023-03-10T12:28:14.386Z,4.85
2023-03-10T12:33:44.228Z,2.15
2023-03-10T12:38:51.071Z,3.22
2023-03-10T12:43:56.785Z,3.25
2023-03-10T12:49:13.715Z,5.10
2023-03-10T12:54:48.993Z,4.57
2023-03-10T12:59:58.080Z,2.95
2023-03-10T13:05:03.764Z,2.70
2023-03-10T13:10:07.818Z,5.97
2023-03-10T13:15:24.806Z,5.43
2023-03-10T13:20:25.632Z,5.28
2023-03-10T13:25:28.520Z,3.72
2023-03-10T13:30:31.378Z,11.23
2023-03-10T13:35:36.050Z,1.90
2023-03-10T13:40:42.218Z,4.78
2023-03-10T13:45:43.482Z,3.42
2023-03-10T13:50:44.254Z,4.65
2023-03-10T13:55:46.298Z,4.78
2023-03-10T14:00:50.636Z,5.38
2023-03-10T14:05:51.376Z,7.20
2023-03-10T14:10:53.484Z,6.30
2023-03-10T14:15:55.718Z,2.85
2023-03-10T14:20:57.022Z,8.45
2023-03-10T14:25:59.377Z,3.90
2023-03-10T14:31:02.572Z,2.08
2023-03-10T14:36:12.078Z,1.20
2023-03-10T14:41:15.246Z,2.58
2023-03-10T14:46:16.163Z,1.38
2023-03-10T14:51:34.564Z,1.75
2023-03-10T14:56:37.583Z,0.95
2023-03-10T15:01:38.335Z,1.73
2023-03-10T15:06:39.119Z,2.40
2023-03-10T15:11:42.122Z,1.83
2023-03-10T15:16:42.875Z,2.80
2023-03-10T15:21:43.567Z,5.45
2023-03-10T15:26:45.786Z,1.90
2023-03-10T15:31:46.897Z,1.30
2023-03-10T15:36:47.699Z,0.98
2023-03-10T15:41:50.286Z,2.38
2023-03-10T15:46:55.008Z,3.65
2023-03-10T15:51:56.156Z,2.10
2023-03-10T15:56:58.116Z,2.75
2023-03-10T16:01:58.984Z,0.90
2023-03-10T16:07:03.365Z,2.58
2023-03-10T16:12:06.322Z,1.95
2023-03-10T16:17:07.045Z,1.02
2023-03-10T16:22:10.307Z,1.95
2023-03-10T16:27:13.060Z,1.52
2023-03-10T16:32:14.953Z,2.22
2023-03-10T16:37:15.739Z,1.17
2023-03-10T16:42:18.341Z,2.85
2023-03-10T16:47:19.050Z,2.63
2023-03-10T16:52:19.721Z,1.67
2023-03-10T16:57:21.811Z,3.35
2023-03-10T17:02:22.480Z,1.55
2023-03-10T17:07:23.293Z,0.98
2023-03-10T17:12:25.274Z,6.63
2023-03-10T17:17:26.001Z,1.42
2023-03-10T17:22:26.795Z,1.63
2023-03-10T17:27:29.023Z,1.20
2023-03-10T17:32:30.764Z,2.45
2023-03-10T17:37:31.616Z,0.90
2023-03-10T17:42:33.680Z,0.73
2023-03-10T17:47:34.381Z,1.77
2023-03-10T17:52:35.082Z,1.17
2023-03-10T17:57:39.048Z,0.82
2023-03-10T18:02:41.191Z,1.33
2023-03-10T18:07:41.981Z,1.08
2023-03-10T18:12:44.029Z,1.27
2023-03-10T18:17:44.752Z,0.75
2023-03-10T18:22:45.650Z,0.65
2023-03-10T18:27:47.912Z,1.90
2023-03-10T18:32:48.655Z,0.70
2023-03-10T18:37:49.376Z,0.70
2023-03-10T18:42:51.414Z,1.42
2023-03-10T18:47:52.190Z,0.60
2023-03-10T18:52:52.937Z,0.70
2023-03-10T18:57:55.152Z,2.47
2023-03-10T19:02:55.979Z,0.60
2023-03-10T19:07:56.885Z,0.60
2023-03-10T19:12:59.084Z,2.05
2023-03-10T19:17:59.887Z,1.88
2023-03-10T19:23:00.616Z,1.30
2023-03-10T19:28:02.666Z,1.05
2023-03-10T19:33:03.640Z,1.15
2023-03-10T19:38:04.369Z,1.00
2023-03-10T19:43:06.444Z,4.03
2023-03-10T19:48:07.523Z,0.80
2023-03-10T19:53:08.193Z,0.73
2023-03-10T19:58:10.327Z,0.65
2023-03-10T20:03:11.019Z,0.85
2023-03-10T20:08:11.715Z,0.30
2023-03-10T20:13:14.295Z,0.82
2023-03-10T20:18:18.369Z,0.52
2023-03-10T20:23:19.080Z,1.42
2023-03-10T20:28:21.129Z,0.40
2023-03-10T20:33:21.928Z,0.40
2023-03-10T20:38:22.845Z,0.57
2023-03-10T20:43:24.875Z,0.60
2023-03-10T20:48:25.609Z,0.43
2023-03-10T20:53:26.353Z,1.05
2023-03-10T20:58:28.804Z,0.50
2023-03-10T21:03:29.451Z,2.47
2023-03-10T21:08:30.144Z,0.43
2023-03-10T21:13:32.386Z,0.55
2023-03-10T21:18:33.174Z,0.20
2023-03-10T21:23:35.672Z,1.15
2023-03-10T21:28:42.433Z,0.32
2023-03-10T21:33:43.315Z,0.20
2023-03-10T21:38:44.066Z,0.85
2023-03-10T21:43:46.112Z,0.45
2023-03-10T21:48:46.930Z,3.03
2023-03-10T21:53:48.281Z,0.30
2023-03-10T21:58:50.540Z,1.65
2023-03-10T22:03:51.390Z,0.55
2023-03-10T22:08:52.063Z,1.33
2023-03-10T22:13:54.461Z,1.13
2023-03-10T22:18:55.153Z,1.02
2023-03-10T22:23:55.817Z,3.13
2023-03-10T22:28:57.835Z,0.30
2023-03-10T22:33:58.502Z,0.47
2023-03-10T22:38:59.161Z,2.40
2023-03-10T22:44:01.149Z,1.75
2023-03-10T22:49:01.888Z,1.30
2023-03-10T22:54:03.828Z,0.30
2023-03-10T22:59:06.000Z,0.40
2023-03-10T23:04:06.978Z,0.45
2023-03-10T23:09:10.380Z,0.47
2023-03-10T23:14:12.739Z,0.90
2023-03-10T23:19:13.463Z,0.73
2023-03-10T23:24:14.191Z,0.60
2023-03-10T23:29:19.486Z,0.80
2023-03-10T23:34:20.188Z,0.95
2023-03-10T23:39:20.882Z,0.70
2023-03-10T23:44:22.988Z,0.40
2023-03-10T23:49:23.707Z,0.30
2023-03-10T23:54:24.466Z,0.85
2023-03-10T23:59:26.726Z,0.75
